Terminal Aerodrome Forecast
Issued by NWS

Home | Current Version | Previous Version | Text Only | Print | Product List | Glossary On
Versions: 1 2 3 4 5 6 7 8 9 10 11 12 13 14 15
174
FTUS43 KGRR 201740
TAFBTL
TAF
KBTL 201740Z 2018/2118 27008KT P6SM BKN050
     FM202000 26007KT P6SM BKN250
     FM210900 VRB03KT 3SM BR BKN009
     FM211300 VRB04KT P6SM SCT025=

USA.gov is the U.S. government's official web portal to all federal, state and local government web resources and services.